Time;durP1;ratioP1;P1;durP2;ratioP2;P2;SDS_P1;SDS_P2;PMS_P1;PMS_P2;Temp;Humidity;BMP_temperature;BMP_pressure;BME280_temperature;BME280_humidity;BME280_pressure;Samples;Min_cycle;Max_cycle;Signal;HPM_P1;HPM_P2
2022/04/29 00:01:22;;;;;;;4.18;2.60;;;11.60;99.80;;;;;;5096925;28;20062;-87
2022/04/29 00:03:47;;;;;;;4.40;2.97;;;11.70;99.90;;;;;;5096632;28;20031;-87
2022/04/29 00:06:14;;;;;;;4.00;2.63;;;11.60;99.90;;;;;;5095892;28;20028;-86
2022/04/29 00:08:40;;;;;;;4.43;2.90;;;11.60;99.90;;;;;;5095601;28;20055;-88
2022/04/29 00:11:06;;;;;;;5.10;2.90;;;11.60;99.80;;;;;;5097410;28;20028;-88
2022/04/29 00:13:32;;;;;;;4.72;3.05;;;11.70;99.70;;;;;;5096928;28;20035;-93
2022/04/29 00:16:00;;;;;;;3.78;3.08;;;11.70;99.60;;;;;;5096359;28;20024;-92
2022/04/29 00:18:26;;;;;;;5.05;2.83;;;11.80;99.30;;;;;;5096607;28;20031;-86
2022/04/29 00:20:52;;;;;;;4.65;2.85;;;11.80;99.60;;;;;;5096814;28;20028;-88
2022/04/29 00:23:18;;;;;;;3.85;2.58;;;11.80;99.90;;;;;;5096294;28;20461;-85
2022/04/29 00:25:44;;;;;;;3.70;2.90;;;11.80;99.70;;;;;;5096578;28;20032;-91
2022/04/29 00:28:10;;;;;;;3.88;2.95;;;11.80;99.80;;;;;;5096728;28;20027;-88
2022/04/29 00:30:36;;;;;;;4.78;2.88;;;11.80;99.90;;;;;;5096217;28;20028;-89
2022/04/29 00:33:02;;;;;;;3.65;2.80;;;11.80;99.70;;;;;;5095735;28;20473;-88
2022/04/29 00:35:28;;;;;;;5.15;3.15;;;11.80;99.80;;;;;;5095066;28;20032;-88
2022/04/29 00:37:55;;;;;;;3.70;2.80;;;11.70;99.90;;;;;;5095819;28;20191;-88
2022/04/29 00:40:23;;;;;;;5.88;3.40;;;11.70;99.90;;;;;;5095734;28;20043;-85
2022/04/29 00:42:49;;;;;;;6.13;3.22;;;11.60;99.90;;;;;;5094905;28;20131;-84
2022/04/29 00:45:17;;;;;;;4.97;2.90;;;11.60;99.90;;;;;;5096605;28;20020;-89
2022/04/29 00:47:43;;;;;;;4.35;3.10;;;11.60;99.90;;;;;;5096070;28;20017;-88
2022/04/29 00:50:10;;;;;;;5.18;2.95;;;11.60;99.90;;;;;;5095246;28;20028;-89
2022/04/29 00:52:41;;;;;;;3.83;2.90;;;11.60;99.90;;;;;;5095471;28;20024;-87
2022/04/29 00:55:08;;;;;;;4.10;3.33;;;11.50;99.90;;;;;;5095186;28;20035;-88
2022/04/29 00:57:59;;;;;;;5.45;3.10;;;11.50;99.90;;;;;;5094265;28;20031;-87
2022/04/29 01:00:24;;;;;;;6.93;3.03;;;11.40;99.90;;;;;;5095418;28;20031;-87
2022/04/29 01:02:53;;;;;;;3.38;3.00;;;11.40;99.90;;;;;;5096116;28;20458;-88
2022/04/29 01:05:21;;;;;;;4.70;3.35;;;11.30;99.90;;;;;;5096031;28;20028;-89
2022/04/29 01:07:48;;;;;;;5.80;3.75;;;11.20;99.90;;;;;;5094857;28;20024;-88
2022/04/29 01:10:16;;;;;;;4.43;3.17;;;11.20;99.90;;;;;;5094845;28;20032;-88
2022/04/29 01:12:44;;;;;;;5.05;2.75;;;11.20;99.90;;;;;;5095670;28;20534;-88
2022/04/29 01:15:13;;;;;;;5.10;3.13;;;11.20;99.90;;;;;;5095905;28;20436;-88
2022/04/29 01:17:40;;;;;;;6.60;3.40;;;11.20;99.90;;;;;;5094491;28;20031;-88
2022/04/29 01:20:08;;;;;;;5.05;3.00;;;11.20;99.90;;;;;;5095548;28;20031;-89
2022/04/29 01:22:34;;;;;;;6.78;2.90;;;11.20;99.90;;;;;;5094209;28;20040;-89
2022/04/29 01:25:00;;;;;;;3.40;2.95;;;11.20;99.90;;;;;;5094829;28;20502;-88
2022/04/29 01:27:26;;;;;;;3.95;2.80;;;11.20;99.90;;;;;;5094249;28;20032;-88
2022/04/29 01:30:18;;;;;;;7.10;3.45;;;11.20;99.90;;;;;;5094992;28;20369;-88
2022/04/29 01:32:44;;;;;;;3.90;3.00;;;11.20;99.90;;;;;;5089545;28;20027;-84
2022/04/29 01:35:13;;;;;;;4.70;3.35;;;11.30;99.90;;;;;;5093394;28;20035;-84
2022/04/29 01:37:39;;;;;;;4.70;2.97;;;11.30;99.90;;;;;;5093891;28;20024;-84
2022/04/29 01:40:09;;;;;;;5.32;3.30;;;11.30;99.90;;;;;;5094375;28;20031;-85
2022/04/29 01:42:36;;;;;;;4.35;3.20;;;11.20;99.90;;;;;;5093784;28;20040;-85
2022/04/29 01:45:03;;;;;;;4.15;3.47;;;11.20;99.90;;;;;;5094323;28;20028;-84
2022/04/29 01:47:29;;;;;;;5.85;3.50;;;11.20;99.90;;;;;;5095039;28;20073;-86
2022/04/29 01:49:55;;;;;;;5.50;3.42;;;11.10;99.90;;;;;;5095342;28;20020;-86
2022/04/29 01:52:21;;;;;;;4.95;3.47;;;11.10;99.90;;;;;;5094536;28;20031;-86
2022/04/29 01:54:46;;;;;;;5.40;3.10;;;11.00;99.90;;;;;;5093812;28;20024;-86
2022/04/29 01:57:12;;;;;;;4.93;3.58;;;11.10;99.90;;;;;;5094314;28;20115;-86
2022/04/29 01:59:38;;;;;;;5.90;3.70;;;11.10;99.90;;;;;;5093635;28;20131;-86
2022/04/29 02:02:06;;;;;;;5.97;3.60;;;11.00;99.90;;;;;;5095150;28;20439;-86
2022/04/29 02:04:33;;;;;;;4.63;3.60;;;11.00;99.90;;;;;;5094456;28;20484;-87
2022/04/29 02:06:58;;;;;;;6.68;3.60;;;11.00;99.90;;;;;;5093947;28;20028;-87
2022/04/29 02:09:24;;;;;;;5.68;3.80;;;11.00;99.90;;;;;;5094424;28;20031;-86
2022/04/29 02:12:05;;;;;;;5.45;3.88;;;11.00;99.90;;;;;;5093253;28;20025;-86
2022/04/29 02:14:38;;;;;;;5.95;4.05;;;11.00;99.90;;;;;;5093687;28;20024;-86
2022/04/29 02:17:06;;;;;;;5.88;4.30;;;10.90;99.90;;;;;;5094873;28;20039;-87
2022/04/29 02:19:32;;;;;;;6.80;3.55;;;11.00;99.90;;;;;;5094026;28;20076;-85
2022/04/29 02:21:58;;;;;;;8.82;3.78;;;10.90;99.90;;;;;;5093547;28;20071;-84
2022/04/29 02:24:24;;;;;;;6.38;4.28;;;11.00;99.90;;;;;;5094692;28;20024;-84
2022/04/29 02:26:50;;;;;;;7.90;4.05;;;11.00;99.90;;;;;;5093225;28;20028;-85
2022/04/29 02:29:15;;;;;;;6.25;3.63;;;10.90;99.90;;;;;;5094688;28;20024;-85
2022/04/29 02:31:41;;;;;;;7.72;3.80;;;10.90;99.90;;;;;;5094067;28;20532;-84
2022/04/29 02:34:07;;;;;;;5.22;3.80;;;10.90;99.90;;;;;;5093178;28;20024;-84
2022/04/29 02:36:33;;;;;;;5.25;4.22;;;10.90;99.90;;;;;;5093169;28;20036;-84
2022/04/29 02:39:01;;;;;;;5.13;3.83;;;10.90;99.90;;;;;;5093265;28;20383;-85
2022/04/29 02:41:27;;;;;;;5.65;4.22;;;10.90;99.90;;;;;;5092505;28;20043;-85
2022/04/29 02:43:53;;;;;;;6.40;4.07;;;10.80;99.90;;;;;;5093138;28;20028;-84
2022/04/29 02:46:18;;;;;;;5.65;3.85;;;10.80;99.90;;;;;;5092857;28;20118;-84
2022/04/29 02:48:46;;;;;;;7.43;4.38;;;10.80;99.90;;;;;;5092475;28;20031;-84
2022/04/29 02:51:12;;;;;;;9.25;4.57;;;10.80;99.90;;;;;;5094203;28;20020;-85
2022/04/29 02:53:38;;;;;;;5.85;4.38;;;10.80;99.90;;;;;;5093585;28;20020;-88
2022/04/29 02:56:03;;;;;;;5.63;3.70;;;10.80;99.90;;;;;;5093459;28;20073;-88
2022/04/29 02:58:29;;;;;;;7.43;4.82;;;10.70;99.90;;;;;;5092891;28;20048;-88
2022/04/29 03:00:56;;;;;;;7.35;4.75;;;10.70;99.90;;;;;;5093566;28;20024;-88
2022/04/29 03:03:22;;;;;;;6.38;4.05;;;10.70;99.90;;;;;;5094051;28;20028;-88
2022/04/29 03:05:48;;;;;;;5.82;4.00;;;10.70;99.90;;;;;;5092782;28;20464;-88
2022/04/29 03:08:13;;;;;;;11.75;4.75;;;10.70;99.90;;;;;;5092992;28;20028;-88
2022/04/29 03:10:39;;;;;;;5.45;4.30;;;10.70;99.90;;;;;;5093849;28;20032;-88
2022/04/29 03:13:05;;;;;;;8.35;4.80;;;10.60;99.90;;;;;;5093028;28;20131;-88
2022/04/29 03:15:30;;;;;;;8.60;4.22;;;10.60;99.90;;;;;;5092953;28;20043;-88
2022/04/29 03:20:43;;;;;;;6.75;4.05;;;10.40;99.90;;;;;;5093663;28;20035;-86
2022/04/29 03:23:09;;;;;;;7.05;4.30;;;10.40;99.90;;;;;;5093194;28;20032;-85
2022/04/29 03:25:35;;;;;;;6.30;4.60;;;10.40;99.90;;;;;;5093620;28;20027;-88
2022/04/29 03:28:02;;;;;;;8.80;4.10;;;10.30;99.90;;;;;;5092907;28;20026;-86
2022/04/29 03:30:28;;;;;;;6.72;4.28;;;10.30;99.90;;;;;;5092991;28;20031;-88
2022/04/29 03:33:01;;;;;;;6.90;4.18;;;10.30;99.90;;;;;;5093019;28;20036;-88
2022/04/29 03:35:27;;;;;;;6.57;4.25;;;10.30;99.90;;;;;;5094060;28;20031;-89
2022/04/29 03:37:53;;;;;;;5.95;4.45;;;10.30;99.90;;;;;;5092374;28;20028;-88
2022/04/29 03:40:23;;;;;;;7.32;4.30;;;10.30;99.90;;;;;;5092767;28;20036;-87
2022/04/29 03:42:50;;;;;;;5.15;4.03;;;10.20;99.90;;;;;;5092360;28;20203;-87
2022/04/29 03:45:16;;;;;;;7.22;4.70;;;10.20;99.90;;;;;;5092864;28;20107;-87
2022/04/29 03:47:42;;;;;;;7.07;4.70;;;10.20;99.90;;;;;;5092357;28;20115;-87
2022/04/29 03:50:09;;;;;;;5.57;4.40;;;10.20;99.90;;;;;;5092983;28;20074;-88
2022/04/29 03:52:43;;;;;;;8.48;4.70;;;10.20;99.90;;;;;;5092078;28;20028;-88
2022/04/29 03:55:09;;;;;;;6.80;4.40;;;10.10;99.90;;;;;;5092691;28;20028;-88
2022/04/29 03:57:35;;;;;;;6.88;4.75;;;10.10;99.90;;;;;;5093934;28;20530;-88
2022/04/29 04:00:00;;;;;;;7.82;4.28;;;10.10;99.90;;;;;;5095995;28;20084;-88
2022/04/29 04:02:26;;;;;;;6.68;4.75;;;10.10;99.90;;;;;;5095729;28;20460;-88
2022/04/29 04:04:51;;;;;;;6.18;4.15;;;10.10;99.90;;;;;;5096739;28;20078;-88
2022/04/29 04:07:17;;;;;;;5.47;4.45;;;10.10;99.90;;;;;;5096334;28;20039;-87
2022/04/29 04:09:43;;;;;;;7.55;4.43;;;10.00;99.90;;;;;;5096996;28;20032;-87
2022/04/29 04:12:10;;;;;;;8.93;4.50;;;9.90;99.90;;;;;;5097164;28;20475;-87
2022/04/29 04:14:35;;;;;;;6.85;4.30;;;10.00;99.90;;;;;;5095692;28;20027;-87
2022/04/29 04:17:01;;;;;;;7.20;4.60;;;9.90;99.90;;;;;;5095860;28;20020;-87
2022/04/29 04:19:26;;;;;;;5.70;4.35;;;9.90;99.90;;;;;;5096080;28;20024;-86
2022/04/29 04:21:52;;;;;;;6.28;4.20;;;9.90;99.90;;;;;;5095420;28;20032;-87
2022/04/29 04:24:18;;;;;;;7.75;4.65;;;9.90;99.90;;;;;;5097037;28;20509;-88
2022/04/29 04:26:43;;;;;;;6.43;4.60;;;9.90;99.90;;;;;;5096280;28;20114;-87
2022/04/29 04:29:09;;;;;;;6.63;4.25;;;9.90;99.90;;;;;;5096846;28;20024;-87
2022/04/29 04:31:34;;;;;;;7.22;4.15;;;9.90;99.90;;;;;;5096392;28;20028;-87
2022/04/29 04:34:49;;;;;;;7.50;4.60;;;9.90;99.90;;;;;;5095892;28;20062;-88
2022/04/29 04:36:49;;;;;;;6.47;4.60;;;9.80;99.90;;;;;;5095681;28;20024;-88
2022/04/29 04:39:15;;;;;;;9.35;4.63;;;9.80;99.90;;;;;;5095544;28;20027;-87
2022/04/29 04:41:40;;;;;;;5.95;4.63;;;9.80;99.90;;;;;;5094633;28;20032;-87
2022/04/29 04:44:06;;;;;;;7.50;5.20;;;9.80;99.90;;;;;;5095495;28;20024;-88
2022/04/29 04:46:32;;;;;;;6.82;4.70;;;9.80;99.90;;;;;;5095620;28;20024;-87
2022/04/29 04:48:57;;;;;;;7.32;4.55;;;9.80;99.90;;;;;;5094932;28;20381;-87
2022/04/29 04:51:23;;;;;;;8.48;5.20;;;9.80;99.90;;;;;;5095493;28;20117;-89
2022/04/29 04:53:48;;;;;;;7.53;4.95;;;9.80;99.90;;;;;;5094480;28;20481;-88
2022/04/29 04:56:15;;;;;;;7.75;5.13;;;9.80;99.90;;;;;;5095014;28;20028;-90
2022/04/29 04:58:40;;;;;;;7.05;5.03;;;9.80;99.90;;;;;;5094216;28;20076;-90
2022/04/29 05:01:06;;;;;;;7.30;5.20;;;9.80;99.90;;;;;;5096105;28;20024;-88
2022/04/29 05:03:32;;;;;;;7.68;5.15;;;9.80;99.90;;;;;;5094986;28;20031;-88
2022/04/29 05:05:58;;;;;;;7.95;5.32;;;9.80;99.90;;;;;;5094543;28;20024;-87
2022/04/29 05:08:23;;;;;;;8.30;5.03;;;9.90;99.90;;;;;;5095052;28;20031;-87
2022/04/29 05:10:49;;;;;;;6.70;5.00;;;9.90;99.90;;;;;;5094841;28;20381;-87
2022/04/29 05:13:15;;;;;;;8.90;5.53;;;9.90;99.90;;;;;;5094404;28;20067;-88
2022/04/29 05:15:42;;;;;;;6.78;4.82;;;9.90;99.90;;;;;;5095222;28;20024;-87
2022/04/29 05:18:08;;;;;;;5.95;4.22;;;9.90;99.90;;;;;;5096190;28;20051;-86
2022/04/29 05:20:34;;;;;;;8.50;4.90;;;9.90;99.90;;;;;;5094756;28;20035;-87
2022/04/29 05:23:00;;;;;;;8.40;5.47;;;10.00;99.90;;;;;;5094557;28;20036;-87
2022/04/29 05:25:26;;;;;;;7.80;4.82;;;10.00;99.90;;;;;;5094715;28;20024;-89
2022/04/29 05:27:51;;;;;;;6.60;5.18;;;10.00;99.90;;;;;;5094336;28;20401;-89
2022/04/29 05:30:17;;;;;;;6.90;5.10;;;10.00;99.90;;;;;;5095447;28;20028;-88
2022/04/29 05:32:43;;;;;;;7.93;5.22;;;10.10;99.90;;;;;;5094084;28;20036;-89
2022/04/29 05:35:09;;;;;;;7.65;4.78;;;10.10;99.90;;;;;;5094552;28;20028;-89
2022/04/29 05:37:37;;;;;;;6.72;4.95;;;10.10;99.90;;;;;;5095289;28;20449;-89
2022/04/29 05:42:47;;;;;;;6.97;5.18;;;10.10;99.90;;;;;;5094484;28;20067;-89
2022/04/29 05:45:13;;;;;;;8.40;4.57;;;10.20;99.90;;;;;;5094212;28;20461;-89
2022/04/29 05:47:39;;;;;;;10.45;4.90;;;10.20;99.90;;;;;;5093843;28;20024;-89
2022/04/29 05:50:05;;;;;;;8.65;5.15;;;10.20;99.90;;;;;;5093970;28;20056;-89
2022/04/29 05:52:31;;;;;;;8.52;5.35;;;10.30;99.90;;;;;;5094170;28;20059;-87
2022/04/29 05:54:57;;;;;;;9.57;5.00;;;10.30;99.90;;;;;;5093567;28;20346;-88
2022/04/29 05:57:22;;;;;;;7.35;4.55;;;10.30;99.90;;;;;;5095099;28;20451;-86
2022/04/29 05:59:48;;;;;;;8.13;5.07;;;10.30;99.90;;;;;;5093523;28;20051;-87
2022/04/29 06:02:13;;;;;;;6.60;5.13;;;10.40;99.90;;;;;;5094894;28;20032;-83
2022/04/29 06:04:39;;;;;;;7.07;5.20;;;10.40;99.90;;;;;;5093468;28;20114;-84
2022/04/29 06:07:04;;;;;;;7.40;5.18;;;10.50;99.90;;;;;;5094676;28;20024;-83
2022/04/29 06:09:30;;;;;;;8.65;5.60;;;10.50;99.90;;;;;;5093749;28;20113;-83
2022/04/29 06:11:56;;;;;;;7.82;4.47;;;10.60;99.90;;;;;;5093111;28;20043;-83
2022/04/29 06:14:21;;;;;;;9.02;4.97;;;10.60;99.90;;;;;;5094676;28;20038;-84
2022/04/29 06:16:47;;;;;;;10.13;5.05;;;10.60;99.90;;;;;;5092997;28;20043;-85
2022/04/29 06:19:12;;;;;;;6.80;5.00;;;10.70;99.90;;;;;;5093597;28;20024;-84
2022/04/29 06:21:40;;;;;;;6.13;4.72;;;10.80;99.90;;;;;;5093945;28;20032;-85
2022/04/29 06:24:06;;;;;;;9.43;5.07;;;10.90;99.90;;;;;;5094302;28;20035;-86
2022/04/29 06:26:32;;;;;;;8.10;5.18;;;10.80;99.90;;;;;;5093853;28;20066;-85
2022/04/29 06:28:58;;;;;;;12.07;5.78;;;10.90;99.90;;;;;;5093117;28;20024;-84
2022/04/29 06:31:23;;;;;;;8.70;5.22;;;10.90;99.90;;;;;;5094439;28;20036;-86
2022/04/29 06:33:49;;;;;;;7.25;5.10;;;11.00;99.90;;;;;;5092664;28;20112;-85
2022/04/29 06:36:15;;;;;;;9.52;5.65;;;11.00;99.90;;;;;;5094202;28;20064;-85
2022/04/29 06:38:40;;;;;;;7.53;5.18;;;11.00;99.90;;;;;;5092702;28;20024;-86
2022/04/29 06:41:06;;;;;;;9.15;5.50;;;11.00;99.90;;;;;;5093324;28;20035;-87
2022/04/29 06:43:32;;;;;;;8.20;5.38;;;11.10;99.90;;;;;;5095172;28;20088;-87
2022/04/29 06:45:58;;;;;;;10.07;5.90;;;11.10;99.90;;;;;;5093107;28;20073;-88
2022/04/29 06:48:24;;;;;;;6.85;5.03;;;11.10;99.90;;;;;;5093262;28;20028;-86
2022/04/29 06:50:50;;;;;;;7.70;5.00;;;11.20;99.90;;;;;;5093454;28;20026;-87
2022/04/29 06:53:15;;;;;;;8.30;5.38;;;11.20;99.90;;;;;;5094232;28;20024;-88
2022/04/29 06:55:41;;;;;;;9.32;5.68;;;11.30;99.90;;;;;;5093083;28;20028;-86
2022/04/29 06:58:07;;;;;;;8.52;5.88;;;11.30;99.90;;;;;;5092899;28;20081;-87
2022/04/29 07:00:34;;;;;;;7.28;5.28;;;11.40;99.90;;;;;;5093504;28;20085;-85
2022/04/29 07:03:02;;;;;;;8.68;5.50;;;11.40;99.90;;;;;;5092212;28;20031;-85
2022/04/29 07:05:30;;;;;;;8.75;5.78;;;11.40;99.90;;;;;;5092659;28;20020;-84
2022/04/29 07:07:57;;;;;;;10.07;5.40;;;11.40;99.90;;;;;;5092062;28;20407;-85
2022/04/29 07:10:23;;;;;;;8.00;5.18;;;11.40;99.90;;;;;;5093700;28;20103;-84
2022/04/29 07:12:49;;;;;;;8.45;5.32;;;11.40;99.90;;;;;;5091936;28;20034;-84
2022/04/29 07:15:16;;;;;;;8.07;5.25;;;11.50;99.90;;;;;;5092616;28;20024;-84
2022/04/29 07:17:44;;;;;;;7.72;5.57;;;11.50;99.90;;;;;;5090609;28;20081;-87
2022/04/29 07:20:11;;;;;;;9.32;5.60;;;11.60;99.90;;;;;;5089220;28;20047;-87
2022/04/29 07:22:40;;;;;;;8.77;5.95;;;11.70;99.90;;;;;;5093668;28;20058;-87
2022/04/29 07:25:08;;;;;;;8.95;5.10;;;11.80;99.90;;;;;;5093339;28;20488;-87
2022/04/29 07:27:34;;;;;;;11.18;5.57;;;11.90;99.90;;;;;;5093079;28;20031;-87
2022/04/29 07:30:01;;;;;;;10.18;5.30;;;12.10;99.90;;;;;;5092179;28;20024;-88
2022/04/29 07:32:28;;;;;;;7.05;5.10;;;12.20;99.90;;;;;;5093610;28;20031;-87
2022/04/29 07:43:11;;;;;;;8.70;5.25;;;12.60;99.90;;;;;;5098116;28;20372;-88
2022/04/29 07:45:39;;;;;;;9.52;4.97;;;12.80;99.90;;;;;;5098037;28;20048;-88
2022/04/29 07:48:06;;;;;;;9.40;5.03;;;13.00;99.90;;;;;;5097035;28;20107;-89
2022/04/29 07:50:33;;;;;;;6.68;4.68;;;13.10;99.70;;;;;;5097882;28;20033;-87
2022/04/29 07:53:00;;;;;;;7.30;4.75;;;13.30;99.50;;;;;;5097318;28;20393;-88
2022/04/29 07:55:26;;;;;;;9.80;5.00;;;13.40;99.20;;;;;;5097190;28;20030;-87
2022/04/29 07:57:52;;;;;;;13.13;4.95;;;13.50;98.70;;;;;;5096042;28;20030;-86
2022/04/29 08:00:18;;;;;;;10.23;4.95;;;13.70;98.60;;;;;;5096309;28;20024;-88
2022/04/29 08:02:44;;;;;;;10.05;4.57;;;13.80;98.40;;;;;;5094881;28;20108;-87
2022/04/29 08:05:10;;;;;;;6.78;4.38;;;13.90;98.60;;;;;;5095883;28;20052;-86
2022/04/29 08:07:36;;;;;;;7.80;4.20;;;14.00;98.40;;;;;;5095527;28;20032;-88
2022/04/29 08:10:03;;;;;;;5.35;4.18;;;14.10;98.40;;;;;;5095908;28;20392;-85
2022/04/29 08:12:29;;;;;;;6.97;4.10;;;14.20;98.50;;;;;;5095558;28;20032;-84
2022/04/29 08:14:58;;;;;;;6.70;4.90;;;14.30;97.50;;;;;;5095976;28;20496;-83
2022/04/29 08:17:25;;;;;;;6.18;4.25;;;14.40;96.40;;;;;;5096150;28;20032;-84
2022/04/29 08:19:51;;;;;;;8.52;4.45;;;14.50;95.60;;;;;;5093862;28;20027;-86
2022/04/29 08:22:17;;;;;;;8.38;4.40;;;14.50;95.10;;;;;;5095607;28;20036;-86
2022/04/29 08:24:44;;;;;;;8.25;4.00;;;14.50;94.80;;;;;;5095132;28;20097;-86
2022/04/29 08:27:10;;;;;;;9.80;4.60;;;14.60;95.20;;;;;;5092699;28;20114;-88
2022/04/29 08:29:39;;;;;;;7.70;3.85;;;14.60;96.60;;;;;;5053056;28;20072;-86
2022/04/29 08:32:05;;;;;;;11.68;4.65;;;14.60;95.90;;;;;;5034648;28;20403;-86
2022/04/29 08:34:33;;;;;;;5.82;3.95;;;14.70;94.60;;;;;;5035084;28;20033;-86
2022/04/29 08:37:02;;;;;;;6.55;3.70;;;14.80;95.90;;;;;;5033963;28;20095;-87
2022/04/29 08:39:27;;;;;;;8.38;4.25;;;14.90;96.00;;;;;;5030227;28;20041;-86
2022/04/29 08:41:53;;;;;;;6.68;4.05;;;14.90;95.10;;;;;;5037975;28;20155;-83
2022/04/29 08:44:19;;;;;;;5.95;3.97;;;15.00;95.30;;;;;;5051789;28;20044;-89
2022/04/29 08:46:45;;;;;;;4.72;3.60;;;15.00;95.00;;;;;;5036893;28;20523;-91
2022/04/29 08:49:11;;;;;;;7.18;4.13;;;15.20;93.80;;;;;;5052980;28;20032;-90
2022/04/29 08:51:39;;;;;;;5.97;3.80;;;15.30;93.90;;;;;;5035456;28;20033;-87
2022/04/29 08:54:05;;;;;;;6.90;3.95;;;15.40;93.40;;;;;;5049987;28;20021;-91
2022/04/29 08:59:23;;;;;;;9.77;4.55;;;15.60;92.10;;;;;;5050498;28;20048;-91
2022/04/29 09:01:48;;;;;;;8.15;3.60;;;15.60;91.70;;;;;;5093099;28;20035;-90
2022/04/29 09:04:14;;;;;;;7.63;3.92;;;15.70;92.30;;;;;;5094197;28;20066;-91
2022/04/29 09:06:50;;;;;;;10.27;4.03;;;15.80;92.00;;;;;;5091554;28;20023;-90
2022/04/29 09:09:21;;;;;;;6.00;4.15;;;15.90;91.50;;;;;;5093665;28;20380;-91
2022/04/29 09:11:47;;;;;;;5.72;3.75;;;16.00;91.60;;;;;;5093165;28;20040;-87
2022/04/29 09:14:23;;;;;;;6.60;4.13;;;16.10;90.90;;;;;;5093915;28;20047;-86
2022/04/29 09:16:49;;;;;;;6.85;4.03;;;16.10;91.10;;;;;;5095041;28;20033;-86
2022/04/29 09:19:33;;;;;;;9.40;4.20;;;16.20;91.80;;;;;;5092015;28;20020;-86
2022/04/29 09:22:17;;;;;;;7.88;3.90;;;16.30;90.80;;;;;;5092096;28;20032;-86
2022/04/29 09:24:57;;;;;;;7.53;4.03;;;16.30;90.80;;;;;;5094348;28;20024;-86
2022/04/29 09:27:23;;;;;;;7.22;4.07;;;16.40;90.00;;;;;;5095890;28;20032;-86
2022/04/29 09:29:49;;;;;;;10.30;4.20;;;16.40;90.30;;;;;;5094487;28;20103;-85
2022/04/29 09:32:14;;;;;;;7.53;4.03;;;16.50;90.00;;;;;;5094966;28;20032;-85
2022/04/29 09:34:45;;;;;;;6.50;4.47;;;16.50;89.90;;;;;;5093533;28;20024;-85
2022/04/29 09:39:26;;;;;;;7.63;4.07;;;16.60;89.70;;;;;;5093036;28;20069;-85
2022/04/29 09:40:23;;;;;;;7.68;3.67;;;16.60;89.90;;;;;;5091057;28;20071;-86
2022/04/29 09:42:48;;;;;;;5.55;3.58;;;16.60;90.10;;;;;;5084926;28;20048;-83
2022/04/29 09:45:19;;;;;;;7.43;3.78;;;16.60;90.10;;;;;;5089822;28;20032;-86
2022/04/29 09:47:44;;;;;;;7.57;3.88;;;16.60;89.10;;;;;;5093401;28;20052;-84
2022/04/29 09:50:11;;;;;;;5.35;3.83;;;16.60;88.20;;;;;;5093729;28;20116;-85
2022/04/29 09:52:43;;;;;;;7.38;3.80;;;16.70;88.40;;;;;;5094148;28;20028;-84
2022/04/29 09:55:18;;;;;;;13.77;3.72;;;16.70;88.30;;;;;;5093017;28;20045;-86
2022/04/29 09:57:59;;;;;;;9.57;4.03;;;16.80;90.40;;;;;;5093367;28;20634;-82
2022/04/29 10:00:25;;;;;;;8.77;3.43;;;16.90;87.50;;;;;;5089091;28;20047;-85
2022/04/29 10:02:50;;;;;;;5.15;3.58;;;17.00;85.80;;;;;;5093728;28;20028;-85
2022/04/29 10:05:16;;;;;;;5.78;3.80;;;17.00;84.30;;;;;;5093712;28;20034;-85
2022/04/29 10:07:43;;;;;;;5.32;3.42;;;17.10;80.60;;;;;;5092533;28;20024;-84
2022/04/29 10:10:10;;;;;;;9.60;3.78;;;17.20;79.40;;;;;;5092666;28;20031;-85
2022/04/29 10:12:36;;;;;;;6.85;3.33;;;17.20;77.00;;;;;;5093025;28;20530;-85
2022/04/29 10:15:15;;;;;;;6.13;4.22;;;17.30;76.80;;;;;;5085430;28;20081;-82
2022/04/29 10:23:15;;;;;;;7.43;4.18;;;17.40;77.30;;;;;;5084172;28;20039;-83
2022/04/29 10:25:47;;;;;;;5.90;3.28;;;17.40;76.50;;;;;;5092573;28;20032;-83
2022/04/29 10:28:21;;;;;;;6.30;4.03;;;17.40;77.70;;;;;;5092625;28;20457;-82
2022/04/29 10:30:58;;;;;;;6.68;3.58;;;17.50;75.00;;;;;;5092678;28;20058;-82
2022/04/29 10:33:23;;;;;;;5.60;3.47;;;17.40;73.00;;;;;;5092213;28;20119;-83
2022/04/29 10:35:56;;;;;;;5.57;3.60;;;17.50;74.90;;;;;;5092204;28;20115;-83
2022/04/29 10:38:27;;;;;;;6.32;3.67;;;17.50;74.80;;;;;;5091242;28;20032;-83
2022/04/29 10:41:25;;;;;;;6.93;3.58;;;17.40;73.00;;;;;;5091515;28;20039;-83
2022/04/29 10:43:52;;;;;;;5.90;3.53;;;17.30;71.00;;;;;;5090794;28;20076;-82
2022/04/29 10:46:39;;;;;;;8.25;4.00;;;17.30;72.30;;;;;;5086384;28;20043;-81
2022/04/29 10:49:28;;;;;;;9.80;3.53;;;17.30;72.70;;;;;;5082152;28;20373;-82
2022/04/29 10:51:54;;;;;;;5.85;3.55;;;17.40;72.20;;;;;;5091096;28;20596;-82
2022/04/29 10:54:40;;;;;;;7.45;4.05;;;17.40;72.10;;;;;;5090732;28;20051;-82
2022/04/29 10:57:08;;;;;;;5.85;3.42;;;17.30;70.40;;;;;;5075752;28;20416;-82
2022/04/29 10:59:50;;;;;;;7.10;3.47;;;17.30;71.90;;;;;;5091599;28;20362;-82
2022/04/29 11:02:27;;;;;;;4.68;3.40;;;17.40;71.70;;;;;;5085851;28;20085;-82
2022/04/29 11:04:53;;;;;;;5.85;3.45;;;17.50;71.50;;;;;;5092739;28;20506;-84
2022/04/29 11:07:39;;;;;;;7.82;3.50;;;17.60;69.40;;;;;;5095745;28;20361;-81
2022/04/29 11:10:22;;;;;;;4.88;3.40;;;17.60;68.30;;;;;;5097250;28;20107;-81
2022/04/29 11:13:03;;;;;;;6.72;3.17;;;17.80;69.20;;;;;;5095865;28;20034;-81
2022/04/29 11:15:42;;;;;;;6.13;3.17;;;18.00;68.30;;;;;;5096280;28;20025;-81
2022/04/29 11:18:22;;;;;;;4.43;2.83;;;18.20;70.10;;;;;;5095645;28;20350;-81
2022/04/29 11:20:56;;;;;;;5.60;2.70;;;18.40;69.10;;;;;;5095366;28;20465;-81
2022/04/29 11:26:14;;;;;;;5.88;2.55;;;18.80;66.90;;;;;;5091350;28;20039;-81
2022/04/29 11:28:40;;;;;;;4.45;3.10;;;18.90;70.20;;;;;;5096747;28;20020;-82
2022/04/29 11:31:08;;;;;;;3.80;2.78;;;18.90;66.10;;;;;;5095659;28;20437;-82
2022/04/29 11:33:38;;;;;;;5.88;3.10;;;18.90;64.70;;;;;;5095792;28;20081;-83
2022/04/29 11:36:08;;;;;;;4.47;2.60;;;19.00;63.70;;;;;;5096929;28;20028;-83
2022/04/29 11:38:41;;;;;;;4.65;2.38;;;19.00;63.20;;;;;;5098337;28;20020;-84
2022/04/29 11:41:07;;;;;;;4.65;2.70;;;19.20;62.60;;;;;;5095098;28;20028;-80
2022/04/29 11:43:33;;;;;;;4.15;2.47;;;19.30;62.10;;;;;;5097777;28;20134;-81
2022/04/29 11:46:05;;;;;;;3.85;2.40;;;19.40;59.90;;;;;;5094790;28;20036;-81
2022/04/29 11:48:33;;;;;;;4.78;2.38;;;19.50;59.40;;;;;;5093658;28;20016;-81
2022/04/29 11:50:59;;;;;;;4.95;2.60;;;19.50;59.50;;;;;;5096174;28;20020;-81
2022/04/29 11:53:24;;;;;;;4.18;2.60;;;19.50;58.00;;;;;;5092464;28;20028;-82
2022/04/29 11:55:51;;;;;;;4.32;2.15;;;19.50;57.50;;;;;;5096033;28;20028;-83
2022/04/29 11:58:17;;;;;;;3.25;2.25;;;19.40;58.20;;;;;;5096391;28;20054;-82
2022/04/29 12:00:54;;;;;;;3.75;2.45;;;19.30;57.30;;;;;;5095303;28;20103;-83
2022/04/29 12:03:23;;;;;;;7.78;2.40;;;19.20;57.70;;;;;;5094775;28;20043;-83
2022/04/29 12:05:51;;;;;;;3.92;2.13;;;19.20;57.30;;;;;;5094677;28;20123;-83
2022/04/29 12:08:17;;;;;;;4.25;2.30;;;19.20;58.10;;;;;;5095205;28;20020;-83
2022/04/29 12:10:48;;;;;;;3.50;1.90;;;19.20;59.90;;;;;;5096339;28;20020;-79
2022/04/29 12:13:15;;;;;;;5.97;2.45;;;19.40;57.40;;;;;;5087794;28;21228;-79
2022/04/29 12:15:42;;;;;;;3.17;2.00;;;19.50;56.70;;;;;;5094953;28;20372;-81
2022/04/29 12:18:10;;;;;;;4.93;2.17;;;19.70;57.10;;;;;;5091465;28;20464;-79
2022/04/29 12:20:39;;;;;;;5.78;2.00;;;19.80;55.90;;;;;;5095194;28;20012;-81
2022/04/29 12:23:13;;;;;;;4.20;2.40;;;20.00;55.30;;;;;;5092719;28;20020;-79
2022/04/29 12:25:42;;;;;;;3.05;2.22;;;20.10;52.30;;;;;;5092817;28;20097;-80
2022/04/29 12:28:18;;;;;;;3.25;1.90;;;20.30;54.10;;;;;;5091528;28;20475;-80
2022/04/29 12:36:46;;;;;;;2.00;1.80;;;20.70;52.70;;;;;;5092610;28;20468;-79
2022/04/29 12:39:13;;;;;;;4.32;1.70;;;20.70;53.60;;;;;;5093216;28;20016;-77
2022/04/29 12:41:38;;;;;;;5.00;2.40;;;20.70;53.80;;;;;;5094250;28;20012;-79
2022/04/29 12:46:56;;;;;;;3.65;2.38;;;20.50;52.10;;;;;;5092319;28;20043;-80
2022/04/29 12:49:22;;;;;;;3.08;2.47;;;20.50;54.20;;;;;;5092821;28;20020;-80
2022/04/29 12:51:59;;;;;;;4.90;2.40;;;20.40;52.20;;;;;;5092839;28;20440;-80
2022/04/29 12:54:26;;;;;;;4.15;2.40;;;20.40;52.40;;;;;;5096195;28;20055;-86
2022/04/29 12:56:52;;;;;;;4.13;2.17;;;20.70;54.60;;;;;;5098712;28;20020;-88
2022/04/29 12:59:22;;;;;;;4.18;2.38;;;21.00;57.30;;;;;;5101041;28;20032;-91
2022/04/29 13:01:48;;;;;;;2.67;2.03;;;21.20;53.90;;;;;;5101520;28;20495;-88
2022/04/29 13:04:14;;;;;;;3.42;2.15;;;21.50;54.00;;;;;;5099384;28;20028;-89
2022/04/29 13:06:39;;;;;;;4.18;2.28;;;21.80;52.70;;;;;;5099547;28;20053;-88
2022/04/29 13:09:05;;;;;;;3.92;2.20;;;22.00;52.90;;;;;;5101658;28;20024;-92
2022/04/29 13:11:32;;;;;;;2.83;2.10;;;22.30;52.80;;;;;;5110025;28;20074;-86
2022/04/29 13:13:59;;;;;;;2.72;2.25;;;22.60;50.40;;;;;;5104699;28;20496;-85
2022/04/29 13:16:25;;;;;;;4.43;2.10;;;23.00;50.60;;;;;;5101832;28;20073;-87
2022/04/29 13:18:51;;;;;;;3.97;2.22;;;23.30;52.60;;;;;;5106077;28;20020;-92
2022/04/29 13:21:17;;;;;;;3.55;2.22;;;23.70;50.40;;;;;;5099748;28;20036;-87
2022/04/29 13:23:45;;;;;;;4.40;2.38;;;24.10;47.70;;;;;;5101429;28;20080;-86
2022/04/29 13:26:11;;;;;;;5.30;2.33;;;24.20;47.00;;;;;;5105388;28;20092;-90